sensor_id;sensor_type;location;lat;lon;timestamp;P1;durP1;ratioP1;P2;durP2;ratioP2
4385;SDS011;2207;53.540;10.042;2023-09-07T09:21:23;4.60;;;4.20;;
4385;SDS011;2207;53.540;10.042;2023-09-07T09:23:51;7.57;;;5.13;;
4385;SDS011;2207;53.540;10.042;2023-09-07T09:26:18;6.50;;;5.13;;
4385;SDS011;2207;53.540;10.042;2023-09-07T09:31:40;13.83;;;4.60;;
4385;SDS011;2207;53.540;10.042;2023-09-07T09:34:07;6.63;;;5.87;;
4385;SDS011;2207;53.540;10.042;2023-09-07T09:36:34;4.23;;;3.83;;
4385;SDS011;2207;53.540;10.042;2023-09-07T09:39:02;6.63;;;3.43;;
4385;SDS011;2207;53.540;10.042;2023-09-07T09:41:30;9.20;;;4.57;;
4385;SDS011;2207;53.540;10.042;2023-09-07T09:43:58;4.30;;;3.90;;
4385;SDS011;2207;53.540;10.042;2023-09-07T09:46:27;5.77;;;4.57;;
4385;SDS011;2207;53.540;10.042;2023-09-07T09:48:56;8.97;;;4.80;;
4385;SDS011;2207;53.540;10.042;2023-09-07T09:51:23;5.33;;;4.83;;
4385;SDS011;2207;53.540;10.042;2023-09-07T09:53:57;5.07;;;4.63;;
4385;SDS011;2207;53.540;10.042;2023-09-07T09:58:35;5.33;;;4.53;;
4385;SDS011;2207;53.540;10.042;2023-09-07T10:01:02;5.80;;;4.70;;
4385;SDS011;2207;53.540;10.042;2023-09-07T10:03:31;4.47;;;4.00;;
4385;SDS011;2207;53.540;10.042;2023-09-07T10:06:07;9.03;;;4.63;;
4385;SDS011;2207;53.540;10.042;2023-09-07T10:08:34;4.40;;;4.00;;
4385;SDS011;2207;53.540;10.042;2023-09-07T10:11:01;4.47;;;4.17;;
4385;SDS011;2207;53.540;10.042;2023-09-07T10:13:33;5.33;;;4.00;;
4385;SDS011;2207;53.540;10.042;2023-09-07T10:16:02;4.60;;;4.20;;
4385;SDS011;2207;53.540;10.042;2023-09-07T10:18:33;8.17;;;4.50;;
4385;SDS011;2207;53.540;10.042;2023-09-07T10:21:00;7.70;;;4.30;;
4385;SDS011;2207;53.540;10.042;2023-09-07T10:23:37;7.03;;;3.80;;
4385;SDS011;2207;53.540;10.042;2023-09-07T10:26:05;4.13;;;3.73;;
4385;SDS011;2207;53.540;10.042;2023-09-07T10:28:37;5.27;;;4.30;;
4385;SDS011;2207;53.540;10.042;2023-09-07T10:31:04;4.93;;;4.20;;
4385;SDS011;2207;53.540;10.042;2023-09-07T10:33:32;5.63;;;3.60;;
4385;SDS011;2207;53.540;10.042;2023-09-07T10:36:00;4.63;;;3.90;;
4385;SDS011;2207;53.540;10.042;2023-09-07T10:38:28;3.50;;;3.20;;
4385;SDS011;2207;53.540;10.042;2023-09-07T10:40:57;4.47;;;3.67;;
4385;SDS011;2207;53.540;10.042;2023-09-07T10:43:25;4.80;;;3.90;;
4385;SDS011;2207;53.540;10.042;2023-09-07T10:45:53;6.20;;;4.10;;
4385;SDS011;2207;53.540;10.042;2023-09-07T10:48:21;4.90;;;3.80;;
4385;SDS011;2207;53.540;10.042;2023-09-07T10:50:49;3.93;;;3.50;;
4385;SDS011;2207;53.540;10.042;2023-09-07T10:53:23;5.40;;;3.70;;
4385;SDS011;2207;53.540;10.042;2023-09-07T10:55:52;4.00;;;3.10;;
4385;SDS011;2207;53.540;10.042;2023-09-07T10:58:24;3.40;;;3.10;;
4385;SDS011;2207;53.540;10.042;2023-09-07T11:00:53;3.30;;;3.00;;
4385;SDS011;2207;53.540;10.042;2023-09-07T11:03:20;4.30;;;3.77;;
4385;SDS011;2207;53.540;10.042;2023-09-07T11:05:46;3.30;;;3.07;;
4385;SDS011;2207;53.540;10.042;2023-09-07T11:08:14;5.00;;;2.80;;
4385;SDS011;2207;53.540;10.042;2023-09-07T11:10:41;4.43;;;3.17;;
4385;SDS011;2207;53.540;10.042;2023-09-07T11:13:07;5.50;;;3.30;;
4385;SDS011;2207;53.540;10.042;2023-09-07T11:15:35;5.00;;;3.80;;
4385;SDS011;2207;53.540;10.042;2023-09-07T11:18:05;3.60;;;3.30;;
4385;SDS011;2207;53.540;10.042;2023-09-07T11:20:33;4.67;;;3.10;;
4385;SDS011;2207;53.540;10.042;2023-09-07T11:23:00;3.93;;;3.27;;
4385;SDS011;2207;53.540;10.042;2023-09-07T11:25:27;4.00;;;2.80;;
4385;SDS011;2207;53.540;10.042;2023-09-07T11:27:59;5.50;;;3.00;;
4385;SDS011;2207;53.540;10.042;2023-09-07T11:30:27;3.53;;;3.20;;
4385;SDS011;2207;53.540;10.042;2023-09-07T11:32:59;5.97;;;3.60;;
4385;SDS011;2207;53.540;10.042;2023-09-07T11:35:28;2.90;;;2.70;;
4385;SDS011;2207;53.540;10.042;2023-09-07T11:37:55;3.73;;;3.43;;
4385;SDS011;2207;53.540;10.042;2023-09-07T11:40:21;6.03;;;3.50;;
4385;SDS011;2207;53.540;10.042;2023-09-07T11:42:48;3.83;;;3.47;;
4385;SDS011;2207;53.540;10.042;2023-09-07T11:45:15;4.53;;;3.87;;
4385;SDS011;2207;53.540;10.042;2023-09-07T11:47:43;4.20;;;3.30;;
4385;SDS011;2207;53.540;10.042;2023-09-07T11:50:09;3.93;;;3.40;;
4385;SDS011;2207;53.540;10.042;2023-09-07T11:52:37;4.80;;;2.90;;
4385;SDS011;2207;53.540;10.042;2023-09-07T11:55:04;9.93;;;3.67;;
4385;SDS011;2207;53.540;10.042;2023-09-07T11:57:31;3.10;;;2.90;;
4385;SDS011;2207;53.540;10.042;2023-09-07T11:59:57;4.77;;;3.30;;
4385;SDS011;2207;53.540;10.042;2023-09-07T12:02:24;4.30;;;3.63;;
4385;SDS011;2207;53.540;10.042;2023-09-07T12:04:51;3.57;;;3.27;;
4385;SDS011;2207;53.540;10.042;2023-09-07T12:07:19;3.37;;;3.07;;
4385;SDS011;2207;53.540;10.042;2023-09-07T12:09:47;3.20;;;2.90;;
4385;SDS011;2207;53.540;10.042;2023-09-07T12:12:14;12.03;;;3.60;;
4385;SDS011;2207;53.540;10.042;2023-09-07T12:14:41;3.20;;;2.90;;
4385;SDS011;2207;53.540;10.042;2023-09-07T12:17:08;8.73;;;3.80;;
4385;SDS011;2207;53.540;10.042;2023-09-07T12:19:34;3.50;;;3.20;;
4385;SDS011;2207;53.540;10.042;2023-09-07T12:22:01;5.60;;;3.37;;
4385;SDS011;2207;53.540;10.042;2023-09-07T12:24:28;5.37;;;3.83;;
4385;SDS011;2207;53.540;10.042;2023-09-07T12:26:56;4.17;;;3.87;;
4385;SDS011;2207;53.540;10.042;2023-09-07T12:29:23;7.00;;;4.47;;
4385;SDS011;2207;53.540;10.042;2023-09-07T12:31:49;3.40;;;3.10;;
4385;SDS011;2207;53.540;10.042;2023-09-07T12:34:16;3.70;;;3.40;;
4385;SDS011;2207;53.540;10.042;2023-09-07T12:36:42;3.80;;;3.50;;
4385;SDS011;2207;53.540;10.042;2023-09-07T12:39:09;4.60;;;3.10;;
4385;SDS011;2207;53.540;10.042;2023-09-07T12:41:37;6.17;;;4.03;;
4385;SDS011;2207;53.540;10.042;2023-09-07T12:44:05;4.17;;;3.80;;
4385;SDS011;2207;53.540;10.042;2023-09-07T12:46:32;3.80;;;3.50;;
4385;SDS011;2207;53.540;10.042;2023-09-07T12:49:00;3.10;;;2.90;;
4385;SDS011;2207;53.540;10.042;2023-09-07T12:51:27;4.10;;;3.80;;
4385;SDS011;2207;53.540;10.042;2023-09-07T12:53:53;4.30;;;3.20;;
4385;SDS011;2207;53.540;10.042;2023-09-07T12:56:20;3.63;;;3.40;;
4385;SDS011;2207;53.540;10.042;2023-09-07T12:58:46;4.73;;;3.23;;
4385;SDS011;2207;53.540;10.042;2023-09-07T13:01:15;7.10;;;3.67;;
4385;SDS011;2207;53.540;10.042;2023-09-07T13:03:43;5.30;;;3.30;;
4385;SDS011;2207;53.540;10.042;2023-09-07T13:06:10;3.30;;;3.03;;
4385;SDS011;2207;53.540;10.042;2023-09-07T13:08:36;4.97;;;3.20;;
4385;SDS011;2207;53.540;10.042;2023-09-07T13:11:03;3.47;;;3.17;;
4385;SDS011;2207;53.540;10.042;2023-09-07T13:13:30;3.63;;;3.33;;
4385;SDS011;2207;53.540;10.042;2023-09-07T13:15:56;4.60;;;3.00;;
4385;SDS011;2207;53.540;10.042;2023-09-07T13:18:25;4.07;;;3.40;;
4385;SDS011;2207;53.540;10.042;2023-09-07T13:20:52;3.63;;;3.33;;
4385;SDS011;2207;53.540;10.042;2023-09-07T13:23:24;5.40;;;2.97;;
4385;SDS011;2207;53.540;10.042;2023-09-07T13:25:50;3.83;;;3.30;;
4385;SDS011;2207;53.540;10.042;2023-09-07T13:28:17;5.27;;;3.27;;
4385;SDS011;2207;53.540;10.042;2023-09-07T13:30:44;7.47;;;3.47;;
4385;SDS011;2207;53.540;10.042;2023-09-07T13:33:11;3.37;;;3.07;;
4385;SDS011;2207;53.540;10.042;2023-09-07T13:35:42;3.37;;;3.07;;
4385;SDS011;2207;53.540;10.042;2023-09-07T13:38:12;3.20;;;2.97;;
4385;SDS011;2207;53.540;10.042;2023-09-07T13:40:39;4.43;;;3.30;;
4385;SDS011;2207;53.540;10.042;2023-09-07T13:43:06;9.63;;;3.73;;
4385;SDS011;2207;53.540;10.042;2023-09-07T13:45:32;5.73;;;3.80;;
4385;SDS011;2207;53.540;10.042;2023-09-07T13:47:59;7.70;;;3.17;;
4385;SDS011;2207;53.540;10.042;2023-09-07T13:50:27;3.50;;;3.20;;
4385;SDS011;2207;53.540;10.042;2023-09-07T13:52:55;3.50;;;3.03;;
4385;SDS011;2207;53.540;10.042;2023-09-07T13:55:22;4.80;;;3.40;;
4385;SDS011;2207;53.540;10.042;2023-09-07T13:57:50;3.70;;;3.30;;
4385;SDS011;2207;53.540;10.042;2023-09-07T14:00:16;4.00;;;3.30;;
4385;SDS011;2207;53.540;10.042;2023-09-07T14:02:43;3.70;;;2.90;;
4385;SDS011;2207;53.540;10.042;2023-09-07T14:05:10;3.70;;;3.40;;
4385;SDS011;2207;53.540;10.042;2023-09-07T14:07:36;2.97;;;2.63;;
4385;SDS011;2207;53.540;10.042;2023-09-07T14:10:05;3.90;;;3.60;;
4385;SDS011;2207;53.540;10.042;2023-09-07T14:12:32;3.53;;;3.23;;
4385;SDS011;2207;53.540;10.042;2023-09-07T14:14:59;4.10;;;3.40;;
4385;SDS011;2207;53.540;10.042;2023-09-07T14:17:25;3.60;;;2.93;;
4385;SDS011;2207;53.540;10.042;2023-09-07T14:19:52;9.07;;;3.43;;
4385;SDS011;2207;53.540;10.042;2023-09-07T14:22:18;4.90;;;3.47;;
4385;SDS011;2207;53.540;10.042;2023-09-07T14:24:45;3.90;;;3.30;;
4385;SDS011;2207;53.540;10.042;2023-09-07T14:27:13;3.43;;;3.20;;
4385;SDS011;2207;53.540;10.042;2023-09-07T14:29:39;6.33;;;4.17;;
4385;SDS011;2207;53.540;10.042;2023-09-07T14:32:06;3.50;;;3.20;;
4385;SDS011;2207;53.540;10.042;2023-09-07T14:34:33;3.40;;;3.10;;
4385;SDS011;2207;53.540;10.042;2023-09-07T14:36:59;3.37;;;3.07;;
4385;SDS011;2207;53.540;10.042;2023-09-07T14:39:27;2.57;;;2.40;;
4385;SDS011;2207;53.540;10.042;2023-09-07T14:41:53;3.40;;;3.10;;
4385;SDS011;2207;53.540;10.042;2023-09-07T14:44:21;3.70;;;3.40;;
4385;SDS011;2207;53.540;10.042;2023-09-07T14:46:48;5.90;;;3.17;;
4385;SDS011;2207;53.540;10.042;2023-09-07T14:49:15;3.70;;;3.03;;
4385;SDS011;2207;53.540;10.042;2023-09-07T14:51:42;3.30;;;3.03;;
4385;SDS011;2207;53.540;10.042;2023-09-07T14:54:09;3.20;;;2.90;;
4385;SDS011;2207;53.540;10.042;2023-09-07T14:56:35;2.97;;;2.70;;
4385;SDS011;2207;53.540;10.042;2023-09-07T14:59:03;3.93;;;2.87;;
4385;SDS011;2207;53.540;10.042;2023-09-07T15:01:31;3.23;;;2.93;;
